createdAt,value
2022-12-03T00:01:57.336Z,97197.84
2022-12-03T00:04:00.048Z,97197.81
2022-12-03T00:06:04.129Z,97200.44
2022-12-03T00:08:06.886Z,97193.53
2022-12-03T00:10:10.444Z,97193.53
2022-12-03T00:12:13.101Z,97193.63
2022-12-03T00:14:15.721Z,97199.63
2022-12-03T00:16:18.353Z,97197.03
2022-12-03T00:18:20.993Z,97203.94
2022-12-03T00:20:25.012Z,97197.91
2022-12-03T00:22:28.991Z,97200.53
2022-12-03T00:24:31.595Z,97195.34
2022-12-03T00:26:34.296Z,97196.22
2022-12-03T00:28:36.928Z,97191.91
2022-12-03T00:30:39.733Z,97196.22
2022-12-03T00:32:42.557Z,97194.53
2022-12-03T00:34:45.546Z,97192.81
2022-12-03T00:36:48.449Z,97192.84
2022-12-03T00:38:52.403Z,97197.16
2022-12-03T00:40:55.001Z,97198.03
2022-12-03T00:42:57.808Z,97196.31
2022-12-03T00:45:00.448Z,97198.06
2022-12-03T00:47:03.117Z,97203.25
2022-12-03T00:49:06.154Z,97196.34
2022-12-03T00:51:08.796Z,97198.97
2022-12-03T00:53:11.499Z,97202.50
2022-12-03T00:55:15.479Z,97205.91
2022-12-03T00:57:18.341Z,97204.25
2022-12-03T00:59:20.921Z,97210.25
2022-12-03T01:01:23.589Z,97203.38
2022-12-03T01:03:26.305Z,97212.84
2022-12-03T01:05:28.962Z,97206.00
2022-12-03T01:07:31.670Z,97206.03
2022-12-03T01:09:34.366Z,97203.47
2022-12-03T01:11:38.336Z,97203.47
2022-12-03T01:13:40.960Z,97211.22
2022-12-03T01:15:43.708Z,97217.25
2022-12-03T01:17:46.305Z,97209.53
2022-12-03T01:19:48.884Z,97212.06
2022-12-03T01:21:52.662Z,97214.69
2022-12-03T01:23:55.613Z,97212.09
2022-12-03T01:25:58.224Z,97217.31
2022-12-03T01:28:02.289Z,97218.16
2022-12-03T01:30:06.231Z,97214.72
2022-12-03T01:32:16.644Z,97221.59
2022-12-03T01:34:19.265Z,97221.59
2022-12-03T01:36:21.961Z,97213.88
2022-12-03T01:38:24.571Z,97219.06
2022-12-03T01:40:27.185Z,97217.28
2022-12-03T01:42:32.601Z,97214.69
2022-12-03T01:44:40.166Z,97215.50
2022-12-03T01:46:43.577Z,97218.09
2022-12-03T01:48:46.604Z,97216.38
2022-12-03T01:50:49.407Z,97212.97
2022-12-03T01:52:59.299Z,97216.38
2022-12-03T01:55:05.225Z,97223.25
2022-12-03T01:57:19.305Z,97214.66
2022-12-03T01:59:23.956Z,97215.53
2022-12-03T02:01:28.504Z,97217.25
2022-12-03T02:03:31.222Z,97211.28
2022-12-03T02:05:35.278Z,97224.19
2022-12-03T02:07:37.934Z,97217.25
2022-12-03T02:09:40.530Z,97222.44
2022-12-03T02:11:46.015Z,97217.28
2022-12-03T02:13:50.535Z,97217.31
2022-12-03T02:15:53.191Z,97217.28
2022-12-03T02:17:58.101Z,97213.84
2022-12-03T02:20:02.461Z,97223.31
2022-12-03T02:22:12.310Z,97217.28
2022-12-03T02:24:23.704Z,97212.94
2022-12-03T02:26:28.035Z,97216.38
2022-12-03T02:28:30.699Z,97210.38
2022-12-03T02:30:34.482Z,97218.97
2022-12-03T02:32:38.195Z,97217.25
2022-12-03T02:34:42.345Z,97220.69
2022-12-03T02:36:44.938Z,97218.13
2022-12-03T02:38:49.851Z,97220.66
2022-12-03T02:40:56.696Z,97218.97
2022-12-03T02:43:02.480Z,97217.22
2022-12-03T02:45:10.346Z,97229.22
2022-12-03T02:47:13.244Z,97220.63
2022-12-03T02:49:15.916Z,97217.19
2022-12-03T02:51:18.577Z,97210.31
2022-12-03T02:53:25.434Z,97209.44
2022-12-03T02:55:33.328Z,97214.59
2022-12-03T02:57:39.988Z,97218.06
2022-12-03T02:59:45.203Z,97218.09
2022-12-03T03:01:48.413Z,97218.91
2022-12-03T03:03:52.472Z,97210.38
2022-12-03T03:05:56.650Z,97214.63
2022-12-03T03:08:01.074Z,97218.94
2022-12-03T03:10:05.964Z,97219.00
2022-12-03T03:12:08.713Z,97218.94
2022-12-03T03:14:11.418Z,97214.69
2022-12-03T03:16:15.483Z,97220.69
2022-12-03T03:18:18.945Z,97212.09
2022-12-03T03:20:21.759Z,97216.38
2022-12-03T03:22:32.927Z,97217.22
2022-12-03T03:24:37.884Z,97219.78
2022-12-03T03:26:40.627Z,97217.22
2022-12-03T03:28:46.054Z,97211.25
2022-12-03T03:30:48.773Z,97210.34
2022-12-03T03:32:52.727Z,97207.78
2022-12-03T03:34:56.067Z,97201.81
2022-12-03T03:36:58.966Z,97204.38
2022-12-03T03:39:01.725Z,97209.53
2022-12-03T03:41:06.871Z,97207.75
2022-12-03T03:43:09.651Z,97200.88
2022-12-03T03:45:12.361Z,97201.75
2022-12-03T03:47:15.765Z,97204.34
2022-12-03T03:49:19.752Z,97202.63
2022-12-03T03:51:23.084Z,97206.94
2022-12-03T03:53:25.876Z,97201.75
2022-12-03T03:55:28.967Z,97207.75
2022-12-03T03:57:31.673Z,97203.41
2022-12-03T03:59:34.720Z,97199.16
2022-12-03T04:01:37.879Z,97202.56
2022-12-03T04:03:40.733Z,97205.13
2022-12-03T04:05:44.848Z,97208.53
2022-12-03T04:07:47.766Z,97209.41
2022-12-03T04:09:50.426Z,97205.97
2022-12-03T04:12:10.766Z,97208.53
2022-12-03T04:14:13.324Z,97205.94
2022-12-03T04:16:16.052Z,97203.38
2022-12-03T04:18:36.069Z,97208.53
2022-12-03T04:20:39.175Z,97208.50
2022-12-03T04:22:42.133Z,97194.75
2022-12-03T04:24:44.796Z,97195.59
2022-12-03T04:27:05.129Z,97189.59
2022-12-03T04:29:07.058Z,97193.91
2022-12-03T04:31:23.678Z,97193.09
2022-12-03T04:33:55.395Z,97188.81
2022-12-03T04:35:58.007Z,97192.28
2022-12-03T04:38:02.546Z,97189.72
2022-12-03T04:40:26.286Z,97188.84
2022-12-03T04:42:28.883Z,97188.03
2022-12-03T04:44:33.190Z,97193.13
2022-12-03T04:46:35.860Z,97194.81
2022-12-03T04:48:38.442Z,97190.56
2022-12-03T04:50:41.088Z,97190.50
2022-12-03T04:52:43.684Z,97190.50
2022-12-03T04:54:47.828Z,97187.06
2022-12-03T04:56:50.457Z,97182.78
2022-12-03T04:58:53.047Z,97168.13
2022-12-03T05:00:55.699Z,97170.72
2022-12-03T05:02:58.395Z,97173.28
2022-12-03T05:05:01.090Z,97171.56
2022-12-03T05:07:03.895Z,97169.81
2022-12-03T05:09:06.561Z,97169.78
2022-12-03T05:11:10.513Z,97169.81
2022-12-03T05:13:13.085Z,97165.50
2022-12-03T05:15:15.691Z,97168.06
2022-12-03T05:17:18.278Z,97174.06
2022-12-03T05:19:20.851Z,97180.97
2022-12-03T05:21:22.611Z,97167.19
2022-12-03T05:23:25.112Z,97168.94
2022-12-03T05:25:27.683Z,97171.50
2022-12-03T05:27:31.658Z,97173.22
2022-12-03T05:29:34.411Z,97175.78
2022-12-03T05:31:36.995Z,97178.34
2022-12-03T05:33:44.123Z,97171.53
2022-12-03T05:35:47.481Z,97162.91
2022-12-03T05:37:50.066Z,97164.59
2022-12-03T05:39:52.664Z,97162.06
2022-12-03T05:42:13.034Z,97163.81
2022-12-03T05:44:20.438Z,97165.47
2022-12-03T05:46:23.541Z,97165.44
2022-12-03T05:48:26.161Z,97152.56
2022-12-03T05:50:30.584Z,97148.28
2022-12-03T05:52:33.221Z,97160.34
2022-12-03T05:54:35.860Z,97163.78
2022-12-03T05:56:38.488Z,97164.63
2022-12-03T05:58:41.086Z,97175.72
2022-12-03T06:00:45.158Z,97177.50
2022-12-03T06:02:48.174Z,97174.94
2022-12-03T06:04:51.031Z,97174.94
2022-12-03T06:06:53.816Z,97181.84
2022-12-03T06:08:56.446Z,97185.25
2022-12-03T06:10:59.053Z,97180.94
2022-12-03T06:13:02.171Z,97182.66
2022-12-03T06:15:05.551Z,97189.53
2022-12-03T06:17:09.582Z,97185.25
2022-12-03T06:19:12.167Z,97183.50
2022-12-03T06:21:14.751Z,97193.84
2022-12-03T06:23:17.330Z,97192.16
2022-12-03T06:25:19.930Z,97191.25
2022-12-03T06:27:23.082Z,97194.72
2022-12-03T06:29:25.735Z,97192.16
2022-12-03T06:31:28.440Z,97191.31
2022-12-03T06:33:32.446Z,97186.13
2022-12-03T06:35:35.023Z,97187.84
2022-12-03T06:37:37.639Z,97170.59
2022-12-03T06:39:40.221Z,97173.22
2022-12-03T06:41:42.908Z,97179.22
2022-12-03T06:43:45.493Z,97169.78
2022-12-03T06:45:48.718Z,97170.66
2022-12-03T06:47:51.336Z,97169.78
2022-12-03T06:49:55.435Z,97173.16
2022-12-03T06:51:58.056Z,97160.25
2022-12-03T06:54:00.630Z,97161.13
2022-12-03T06:56:03.210Z,97167.97
2022-12-03T06:58:05.827Z,97179.19
2022-12-03T07:00:09.888Z,97171.44
2022-12-03T07:02:13.218Z,97162.84
2022-12-03T07:04:18.835Z,97167.97
2022-12-03T07:06:22.790Z,97178.31
2022-12-03T07:08:25.446Z,97180.03
2022-12-03T07:10:28.219Z,97174.88
2022-12-03T07:12:31.625Z,97173.13
2022-12-03T07:14:34.260Z,97172.25
2022-12-03T07:16:37.281Z,97171.38
2022-12-03T07:18:39.974Z,97174.81
2022-12-03T07:20:42.566Z,97167.09
2022-12-03T07:22:46.513Z,97174.81
2022-12-03T07:24:49.149Z,97178.25
2022-12-03T07:26:51.719Z,97181.72
2022-12-03T07:28:54.345Z,97182.50
2022-12-03T07:30:56.992Z,97185.09
2022-12-03T07:32:59.622Z,97183.41
2022-12-03T07:35:02.867Z,97181.69
2022-12-03T07:37:05.538Z,97183.41
2022-12-03T07:39:09.533Z,97188.63
2022-12-03T07:41:12.209Z,97186.06
2022-12-03T07:43:14.816Z,97186.88
2022-12-03T07:45:17.483Z,97183.44
2022-12-03T07:47:20.215Z,97191.19
2022-12-03T07:49:22.814Z,97189.44
2022-12-03T07:51:30.631Z,97188.59
2022-12-03T07:53:36.099Z,97188.59
2022-12-03T07:55:40.068Z,97192.94
2022-12-03T07:57:42.637Z,97186.84
2022-12-03T07:59:45.218Z,97179.97
2022-12-03T08:01:47.848Z,97177.41
2022-12-03T08:03:50.507Z,97177.41
2022-12-03T08:05:55.283Z,97176.56
2022-12-03T08:07:58.019Z,97176.56
2022-12-03T08:10:00.684Z,97167.06
2022-12-03T08:12:13.978Z,97177.38
2022-12-03T08:14:18.028Z,97169.63
2022-12-03T08:16:23.447Z,97171.38
2022-12-03T08:18:26.228Z,97170.50
2022-12-03T08:20:33.722Z,97177.38
2022-12-03T08:22:36.297Z,97174.75
2022-12-03T08:24:39.064Z,97164.47
2022-12-03T08:26:43.875Z,97169.53
2022-12-03T08:28:48.247Z,97162.69
2022-12-03T08:31:01.176Z,97165.25
2022-12-03T08:33:14.616Z,97172.13
2022-12-03T08:35:23.643Z,97171.22
2022-12-03T08:37:26.340Z,97168.66
2022-12-03T08:39:33.545Z,97164.31
2022-12-03T08:41:54.739Z,97159.16
2022-12-03T08:43:58.701Z,97166.94
2022-12-03T08:46:01.640Z,97158.28
2022-12-03T08:48:11.186Z,97157.41
2022-12-03T08:50:28.280Z,97159.13
2022-12-03T08:52:33.257Z,97156.53
2022-12-03T08:54:35.906Z,97162.56
2022-12-03T08:56:38.660Z,97159.97
2022-12-03T08:58:43.399Z,97159.97
2022-12-03T09:00:47.374Z,97157.34
2022-12-03T09:02:53.181Z,97159.94
2022-12-03T09:04:56.134Z,97163.34
2022-12-03T09:06:59.135Z,97159.06
2022-12-03T09:09:06.544Z,97159.00
2022-12-03T09:11:09.490Z,97159.91
2022-12-03T09:13:12.332Z,97157.28
2022-12-03T09:15:14.958Z,97161.56
2022-12-03T09:17:18.925Z,97159.94
2022-12-03T09:19:21.528Z,97158.16
2022-12-03T09:21:24.118Z,97154.69
2022-12-03T09:23:26.731Z,97156.41
2022-12-03T09:25:29.351Z,97161.53
2022-12-03T09:27:31.935Z,97155.50
2022-12-03T09:29:34.591Z,97159.75
2022-12-03T09:31:37.322Z,97159.75
2022-12-03T09:33:41.303Z,97168.34
2022-12-03T09:35:43.892Z,97170.97
2022-12-03T09:37:46.597Z,97171.81
2022-12-03T09:39:49.207Z,97174.28
2022-12-03T09:41:51.885Z,97172.63
2022-12-03T09:44:17.142Z,97178.59
2022-12-03T09:46:18.102Z,97180.34
2022-12-03T09:48:21.965Z,97179.44
2022-12-03T09:50:28.007Z,97182.00
2022-12-03T09:52:34.850Z,97170.91
2022-12-03T09:54:41.557Z,97174.34
2022-12-03T09:56:46.850Z,97164.94
2022-12-03T09:58:50.611Z,97166.69
2022-12-03T10:00:53.366Z,97168.41
2022-12-03T10:02:59.065Z,97163.22
2022-12-03T10:05:01.755Z,97164.94
2022-12-03T10:07:05.719Z,97161.53
2022-12-03T10:09:11.077Z,97161.50
2022-12-03T10:11:13.750Z,97165.75
2022-12-03T10:13:25.476Z,97152.88
2022-12-03T10:15:28.752Z,97152.00
2022-12-03T10:17:32.913Z,97146.84
2022-12-03T10:19:37.584Z,97145.88
2022-12-03T10:21:40.346Z,97143.31
2022-12-03T10:23:48.221Z,97139.94
2022-12-03T10:25:55.617Z,97133.94
2022-12-03T10:28:00.838Z,97128.78
2022-12-03T10:30:06.379Z,97131.31
2022-12-03T10:32:13.195Z,97133.03
2022-12-03T10:34:25.075Z,97128.72
2022-12-03T10:36:27.520Z,97127.03
2022-12-03T10:38:30.141Z,97128.78
2022-12-03T10:40:36.499Z,97128.78
2022-12-03T10:42:41.558Z,97119.28
2022-12-03T10:44:44.335Z,97118.44
2022-12-03T10:47:05.245Z,97114.97
2022-12-03T10:49:16.177Z,97110.66
2022-12-03T10:51:21.079Z,97115.78
2022-12-03T10:53:27.952Z,97106.31
2022-12-03T10:55:38.473Z,97103.78
2022-12-03T10:57:45.674Z,97107.22
2022-12-03T10:59:48.675Z,97099.44
2022-12-03T11:01:51.904Z,97096.03
2022-12-03T11:03:57.683Z,97090.84
2022-12-03T11:06:02.256Z,97091.66
2022-12-03T11:08:05.332Z,97085.63
2022-12-03T11:10:14.860Z,97083.06
2022-12-03T11:12:22.226Z,97081.34
2022-12-03T11:15:06.547Z,97084.75
2022-12-03T11:17:12.121Z,97089.09
2022-12-03T11:19:19.103Z,97088.22
2022-12-03T11:21:21.776Z,97090.84
2022-12-03T11:23:57.748Z,97089.94
2022-12-03T11:26:00.397Z,97083.91
2022-12-03T11:28:34.145Z,97086.50
2022-12-03T11:31:09.220Z,97079.69
2022-12-03T11:33:22.928Z,97073.63
2022-12-03T11:35:36.734Z,97076.19
2022-12-03T11:37:39.675Z,97075.34
2022-12-03T11:40:02.778Z,97075.34
2022-12-03T11:42:29.850Z,97074.41
2022-12-03T11:44:33.853Z,97069.25
2022-12-03T11:46:43.548Z,97070.13
2022-12-03T11:48:47.513Z,97056.38
2022-12-03T11:50:52.677Z,97062.41
2022-12-03T11:52:57.358Z,97059.81
2022-12-03T11:55:06.017Z,97061.50
2022-12-03T11:57:27.423Z,97058.91
2022-12-03T11:59:30.182Z,97048.56
2022-12-03T12:01:38.852Z,97045.13
2022-12-03T12:03:45.121Z,97043.41
2022-12-03T12:05:47.852Z,97050.34
2022-12-03T12:07:50.966Z,97038.25
2022-12-03T12:09:55.541Z,97037.38
2022-12-03T12:12:19.436Z,97033.97
2022-12-03T12:14:27.835Z,97027.91
2022-12-03T12:16:41.035Z,97032.19
2022-12-03T12:18:51.135Z,97018.38
2022-12-03T12:21:33.565Z,97020.19
2022-12-03T12:23:36.234Z,97021.00
2022-12-03T12:25:41.329Z,97014.19
2022-12-03T12:27:45.480Z,97023.56
2022-12-03T12:29:55.879Z,97013.25
2022-12-03T12:32:03.298Z,97008.06
2022-12-03T12:34:12.341Z,97007.25
2022-12-03T12:36:15.048Z,97009.84
2022-12-03T12:38:19.559Z,97007.25
2022-12-03T12:40:24.909Z,97002.94
2022-12-03T12:42:33.950Z,96993.38
2022-12-03T12:44:36.568Z,96997.75
2022-12-03T12:46:47.760Z,96995.19
2022-12-03T12:48:56.487Z,96995.09
2022-12-03T12:51:10.087Z,96990.84
2022-12-03T12:53:17.959Z,96987.41
2022-12-03T12:55:21.532Z,96990.81
2022-12-03T12:57:24.686Z,96991.69
2022-12-03T12:59:27.308Z,96990.84
2022-12-03T13:01:32.527Z,96986.56
2022-12-03T13:03:37.946Z,96993.38
2022-12-03T13:05:45.515Z,96995.97
2022-12-03T13:07:48.871Z,96983.88
2022-12-03T13:09:55.609Z,96990.81
2022-12-03T13:12:00.586Z,96992.56
2022-12-03T13:14:11.431Z,96988.22
2022-12-03T13:16:20.425Z,96987.41
2022-12-03T13:18:32.342Z,96979.63
2022-12-03T13:20:34.793Z,96974.53
2022-12-03T13:22:38.714Z,96976.22
2022-12-03T13:24:44.804Z,96975.38
2022-12-03T13:26:47.403Z,96981.44
2022-12-03T13:28:50.467Z,96979.69
2022-12-03T13:30:53.098Z,96985.75
2022-12-03T13:32:56.046Z,96980.53
2022-12-03T13:35:06.898Z,96978.88
2022-12-03T13:37:15.018Z,96990.94
2022-12-03T13:39:22.382Z,96985.75
2022-12-03T13:41:50.874Z,96997.78
2022-12-03T13:43:53.897Z,96993.53
2022-12-03T13:45:56.668Z,96998.69
2022-12-03T13:48:01.007Z,96985.75
2022-12-03T13:50:20.085Z,96989.06
2022-12-03T13:52:26.168Z,96985.75
2022-12-03T13:54:31.495Z,96989.22
2022-12-03T13:56:36.309Z,96986.63
2022-12-03T13:58:38.930Z,96983.25
2022-12-03T14:00:41.608Z,96973.75
2022-12-03T14:02:44.717Z,96974.72
2022-12-03T14:04:47.369Z,96982.41
2022-12-03T14:06:50.129Z,96979.84
2022-12-03T14:09:07.820Z,96968.72
2022-12-03T14:11:33.207Z,96973.03
2022-12-03T14:13:35.912Z,96979.09
2022-12-03T14:15:38.524Z,96971.34
2022-12-03T14:17:41.441Z,96973.94
2022-12-03T14:19:44.065Z,96970.53
2022-12-03T14:21:46.689Z,96970.59
2022-12-03T14:23:49.280Z,96975.81
2022-12-03T14:25:51.879Z,96975.78
2022-12-03T14:27:55.881Z,96982.69
2022-12-03T14:29:58.454Z,96982.69
2022-12-03T14:32:01.200Z,96993.03
2022-12-03T14:34:03.902Z,96990.41
2022-12-03T14:36:06.881Z,96986.13
2022-12-03T14:38:09.487Z,96988.66
2022-12-03T14:40:17.972Z,96992.13
2022-12-03T14:42:23.654Z,96988.69
2022-12-03T14:44:27.669Z,96983.56
2022-12-03T14:46:30.236Z,96989.63
2022-12-03T14:48:32.807Z,96983.63
2022-12-03T14:50:35.440Z,96986.19
2022-12-03T14:52:38.466Z,96985.31
2022-12-03T14:54:42.288Z,96982.72
2022-12-03T14:56:45.335Z,96979.28
2022-12-03T14:58:47.907Z,96989.59
2022-12-03T15:00:51.901Z,96990.41
2022-12-03T15:02:54.574Z,96992.19
2022-12-03T15:04:57.216Z,96988.81
2022-12-03T15:06:59.874Z,96988.78
2022-12-03T15:09:02.459Z,96992.19
2022-12-03T15:11:05.105Z,96979.31
2022-12-03T15:13:07.685Z,96985.34
2022-12-03T15:15:11.382Z,96988.84
2022-12-03T15:17:15.372Z,96983.69
2022-12-03T15:19:18.070Z,96994.88
2022-12-03T15:21:20.722Z,96995.72
2022-12-03T15:23:23.315Z,96998.31
2022-12-03T15:25:26.082Z,96998.28
2022-12-03T15:27:28.691Z,96995.75
2022-12-03T15:29:32.751Z,96998.31
2022-12-03T15:31:35.428Z,96993.16
2022-12-03T15:33:39.433Z,96986.25
2022-12-03T15:35:42.807Z,96981.13
2022-12-03T15:37:45.555Z,96984.63
2022-12-03T15:39:48.985Z,96991.47
2022-12-03T15:41:51.747Z,96985.44
2022-12-03T15:43:54.396Z,96984.63
2022-12-03T15:45:57.121Z,96988.97
2022-12-03T15:47:59.852Z,96983.81
2022-12-03T15:50:03.867Z,96986.44
2022-12-03T15:52:07.772Z,96985.56
2022-12-03T15:54:12.145Z,96985.63
2022-12-03T15:56:15.106Z,96989.88
2022-12-03T15:58:17.668Z,96989.06
2022-12-03T16:00:21.382Z,96985.59
2022-12-03T16:02:24.038Z,96988.22
2022-12-03T16:04:26.663Z,96992.53
2022-12-03T16:06:30.574Z,96989.91
2022-12-03T16:08:33.250Z,96991.66
2022-12-03T16:10:35.881Z,96999.44
2022-12-03T16:12:38.511Z,96991.75
2022-12-03T16:14:41.112Z,96990.06
2022-12-03T16:16:43.710Z,96989.22
2022-12-03T16:18:47.005Z,96984.97
2022-12-03T16:20:49.797Z,96983.28
2022-12-03T16:22:54.018Z,96984.16
2022-12-03T16:24:56.604Z,96985.91
2022-12-03T16:26:59.269Z,96987.63
2022-12-03T16:29:01.955Z,96985.06
2022-12-03T16:31:04.773Z,96975.66
2022-12-03T16:33:07.395Z,96985.97
2022-12-03T16:35:10.333Z,96983.31
2022-12-03T16:37:12.983Z,96980.75
2022-12-03T16:39:17.286Z,96979.88
2022-12-03T16:41:19.895Z,96978.22
2022-12-03T16:43:22.466Z,96976.50
2022-12-03T16:45:51.226Z,96979.09
2022-12-03T16:47:53.849Z,96965.34
2022-12-03T16:49:56.555Z,96969.59
2022-12-03T16:51:59.221Z,96973.91
2022-12-03T16:54:01.831Z,96973.00
2022-12-03T16:56:06.195Z,96973.88
2022-12-03T16:58:08.772Z,96969.53
2022-12-03T17:00:12.365Z,96977.31
2022-12-03T17:02:15.228Z,96962.78
2022-12-03T17:04:17.991Z,96965.34
2022-12-03T17:06:20.614Z,96956.06
2022-12-03T17:08:23.337Z,96965.47
2022-12-03T17:10:26.087Z,96966.34
2022-12-03T17:12:47.923Z,96960.34
2022-12-03T17:14:52.769Z,96961.22
2022-12-03T17:16:55.411Z,96956.06
2022-12-03T17:18:57.994Z,96960.41
2022-12-03T17:21:00.579Z,96957.81
2022-12-03T17:23:03.523Z,96951.81
2022-12-03T17:25:06.616Z,96956.06
2022-12-03T17:27:09.234Z,96958.69
2022-12-03T17:29:14.198Z,96964.78
2022-12-03T17:31:16.928Z,96961.25
2022-12-03T17:33:19.617Z,96956.06
2022-12-03T17:35:22.318Z,96956.06
2022-12-03T17:37:25.124Z,96954.38
2022-12-03T17:39:27.708Z,96946.63
2022-12-03T17:41:30.336Z,96952.66
2022-12-03T17:43:32.926Z,96950.91
2022-12-03T17:45:36.888Z,96944.94
2022-12-03T17:47:39.514Z,96942.34
2022-12-03T17:49:42.176Z,96944.97
2022-12-03T17:51:44.792Z,96949.25
2022-12-03T17:53:47.412Z,96948.34
2022-12-03T17:55:53.119Z,96944.06
2022-12-03T17:57:55.756Z,96944.88
2022-12-03T17:59:58.383Z,96950.94
2022-12-03T18:02:02.446Z,96939.78
2022-12-03T18:04:05.205Z,96937.22
2022-12-03T18:06:11.059Z,96937.19
2022-12-03T18:08:13.670Z,96943.19
2022-12-03T18:10:16.449Z,96932.03
2022-12-03T18:12:19.039Z,96929.50
2022-12-03T18:14:21.612Z,96935.53
2022-12-03T18:16:24.298Z,96937.19
2022-12-03T18:18:28.287Z,96931.25
2022-12-03T18:20:30.940Z,96931.22
2022-12-03T18:22:33.726Z,96930.38
2022-12-03T18:24:36.375Z,96926.97
2022-12-03T18:26:42.690Z,96929.53
2022-12-03T18:28:45.295Z,96928.66
2022-12-03T18:30:52.540Z,96937.25
2022-12-03T18:32:55.663Z,96937.28
2022-12-03T18:34:59.668Z,96937.28
2022-12-03T18:37:02.341Z,96939.81
2022-12-03T18:39:09.046Z,96941.59
2022-12-03T18:41:11.685Z,96938.16
2022-12-03T18:43:16.840Z,96939.00
2022-12-03T18:45:20.016Z,96939.88
2022-12-03T18:47:24.511Z,96930.34
2022-12-03T18:49:27.152Z,96920.91
2022-12-03T18:51:31.100Z,96924.31
2022-12-03T18:53:36.296Z,96923.47
2022-12-03T18:55:39.192Z,96926.09
2022-12-03T18:57:41.784Z,96934.66
2022-12-03T18:59:44.367Z,96936.41
2022-12-03T19:01:46.959Z,96931.25
2022-12-03T19:03:50.050Z,96932.03
2022-12-03T19:05:52.730Z,96927.75
2022-12-03T19:07:56.782Z,96932.03
2022-12-03T19:09:59.414Z,96929.50
2022-12-03T19:12:01.977Z,96928.69
2022-12-03T19:14:04.553Z,96919.22
2022-12-03T19:16:08.687Z,96927.84
2022-12-03T19:18:11.322Z,96927.00
2022-12-03T19:20:14.357Z,96924.44
2022-12-03T19:22:17.064Z,96920.13
2022-12-03T19:24:25.271Z,96920.13
2022-12-03T19:26:28.482Z,96924.50
2022-12-03T19:28:31.584Z,96921.03
2022-12-03T19:30:34.252Z,96914.19
2022-12-03T19:32:37.127Z,96918.50
2022-12-03T19:34:39.876Z,96915.06
2022-12-03T19:36:42.531Z,96911.63
2022-12-03T19:38:52.130Z,96914.16
2022-12-03T19:41:03.960Z,96915.06
2022-12-03T19:43:06.546Z,96912.59
2022-12-03T19:45:10.554Z,96921.94
2022-12-03T19:47:13.154Z,96913.41
2022-12-03T19:49:16.655Z,96911.63
2022-12-03T19:51:34.251Z,96912.44
2022-12-03T19:53:38.258Z,96908.19
2022-12-03T19:55:40.914Z,96903.88
2022-12-03T19:57:44.860Z,96910.75
2022-12-03T19:59:47.523Z,96907.28
2022-12-03T20:01:50.220Z,96895.28
2022-12-03T20:03:54.781Z,96903.84
2022-12-03T20:06:01.138Z,96907.25
2022-12-03T20:08:04.701Z,96909.88
2022-12-03T20:10:08.501Z,96909.84
2022-12-03T20:12:11.112Z,96909.03
2022-12-03T20:14:16.408Z,96909.00
2022-12-03T20:16:19.142Z,96909.00
2022-12-03T20:18:21.805Z,96908.09
2022-12-03T20:20:24.780Z,96904.69
2022-12-03T20:22:27.419Z,96912.47
2022-12-03T20:24:30.011Z,96910.75
2022-12-03T20:26:33.117Z,96912.47
2022-12-03T20:28:35.808Z,96907.31
2022-12-03T20:30:39.785Z,96897.88
2022-12-03T20:32:45.454Z,96896.16
2022-12-03T20:34:49.601Z,96897.91
2022-12-03T20:36:52.285Z,96887.63
2022-12-03T20:38:55.833Z,96896.25
2022-12-03T20:41:02.018Z,96893.72
2022-12-03T20:43:04.606Z,96884.22
2022-12-03T20:45:08.454Z,96885.91
2022-12-03T20:47:12.435Z,96886.75
2022-12-03T20:49:15.023Z,96885.09
2022-12-03T20:51:19.857Z,96879.09
2022-12-03T20:53:25.254Z,96883.34
2022-12-03T20:55:28.330Z,96883.31
2022-12-03T20:57:30.919Z,96872.19
2022-12-03T20:59:33.697Z,96874.78
2022-12-03T21:01:38.391Z,96886.75
2022-12-03T21:03:42.479Z,96897.94
2022-12-03T21:05:45.290Z,96891.88
2022-12-03T21:07:48.109Z,96890.19
2022-12-03T21:09:50.816Z,96885.88
2022-12-03T21:11:53.684Z,96887.63
2022-12-03T21:13:56.853Z,96888.50
2022-12-03T21:16:05.473Z,96881.66
2022-12-03T21:18:08.819Z,96873.94
2022-12-03T21:20:16.673Z,96880.81
2022-12-03T21:22:23.437Z,96885.06
2022-12-03T21:24:26.115Z,96882.47
2022-12-03T21:26:28.774Z,96883.31
2022-12-03T21:28:31.903Z,96883.31
2022-12-03T21:30:37.604Z,96877.25
2022-12-03T21:32:40.311Z,96878.97
2022-12-03T21:34:42.913Z,96876.47
2022-12-03T21:36:47.177Z,96873.91
2022-12-03T21:38:49.938Z,96874.75
2022-12-03T21:40:52.515Z,96876.50
2022-12-03T21:42:55.234Z,96874.75
2022-12-03T21:44:57.932Z,96870.44
2022-12-03T21:47:09.359Z,96872.16
2022-12-03T21:49:19.296Z,96871.34
2022-12-03T21:51:21.982Z,96867.94
2022-12-03T21:53:26.088Z,96864.44
2022-12-03T21:55:31.963Z,96868.75
2022-12-03T21:57:36.610Z,96868.75
2022-12-03T21:59:39.213Z,96865.28
2022-12-03T22:01:46.961Z,96865.28
2022-12-03T22:03:50.629Z,96867.88
2022-12-03T22:05:53.283Z,96865.31
2022-12-03T22:07:55.921Z,96867.00
2022-12-03T22:09:59.947Z,96859.28
2022-12-03T22:12:02.610Z,96860.16
2022-12-03T22:14:06.919Z,96858.44
2022-12-03T22:16:12.091Z,96862.72
2022-12-03T22:18:14.788Z,96863.63
2022-12-03T22:20:17.536Z,96862.78
2022-12-03T22:22:21.018Z,96861.09
2022-12-03T22:24:24.037Z,96860.25
2022-12-03T22:26:28.018Z,96871.44
2022-12-03T22:28:30.661Z,96869.66
2022-12-03T22:30:33.340Z,96854.19
2022-12-03T22:32:36.323Z,96856.81
2022-12-03T22:34:40.879Z,96852.50
2022-12-03T22:36:43.525Z,96845.59
2022-12-03T22:38:46.593Z,96843.88
2022-12-03T22:40:49.178Z,96845.69
2022-12-03T22:42:53.215Z,96839.63
2022-12-03T22:44:55.845Z,96843.06
2022-12-03T22:46:58.468Z,96836.25
2022-12-03T22:49:06.705Z,96842.31
2022-12-03T22:51:14.055Z,96844.78
2022-12-03T22:53:16.983Z,96839.66
2022-12-03T22:55:19.539Z,96844.78
2022-12-03T22:57:22.256Z,96848.25
2022-12-03T22:59:26.320Z,96844.78
2022-12-03T23:01:31.386Z,96837.06
2022-12-03T23:03:34.049Z,96833.59
2022-12-03T23:05:39.573Z,96830.25
2022-12-03T23:07:42.176Z,96820.69
2022-12-03T23:09:44.906Z,96822.47
2022-12-03T23:11:48.097Z,96824.22
2022-12-03T23:13:50.862Z,96815.59
2022-12-03T23:15:54.855Z,96821.56
2022-12-03T23:17:58.378Z,96824.16
2022-12-03T23:20:00.970Z,96816.44
2022-12-03T23:22:03.657Z,96819.88
2022-12-03T23:24:07.749Z,96813.88
2022-12-03T23:26:13.127Z,96814.72
2022-12-03T23:28:15.740Z,96819.00
2022-12-03T23:30:18.482Z,96807.00
2022-12-03T23:32:22.432Z,96800.13
2022-12-03T23:34:25.068Z,96810.44
2022-12-03T23:36:30.997Z,96813.00
2022-12-03T23:38:33.660Z,96814.69
2022-12-03T23:40:36.259Z,96814.78
2022-12-03T23:42:38.983Z,96821.69
2022-12-03T23:44:41.524Z,96829.41
2022-12-03T23:46:44.140Z,96819.03
2022-12-03T23:48:48.394Z,96814.75
2022-12-03T23:50:50.957Z,96810.44
2022-12-03T23:52:53.696Z,96809.59
2022-12-03T23:54:56.303Z,96814.75
2022-12-03T23:56:59.240Z,96822.50
2022-12-03T23:59:01.896Z,96819.88
